createdAt,value
2018-07-04T00:00:48.636Z,989.04
2018-07-04T00:01:48.566Z,989.02
2018-07-04T00:02:48.494Z,989.04
2018-07-04T00:03:48.422Z,989.02
2018-07-04T00:04:48.354Z,989.10
2018-07-04T00:05:48.284Z,989.09
2018-07-04T00:06:48.213Z,989.11
2018-07-04T00:07:48.140Z,989.10
2018-07-04T00:08:48.069Z,989.09
2018-07-04T00:09:47.999Z,989.09
2018-07-04T00:10:47.929Z,989.08
2018-07-04T00:11:47.856Z,989.06
2018-07-04T00:12:47.785Z,989.05
2018-07-04T00:13:47.716Z,989.03
2018-07-04T00:14:47.645Z,989.04
2018-07-04T00:15:47.574Z,989.04
2018-07-04T00:16:47.507Z,989.04
2018-07-04T00:17:47.433Z,989.04
2018-07-04T00:18:47.361Z,989.00
2018-07-04T00:19:47.291Z,989.03
2018-07-04T00:20:47.220Z,989.06
2018-07-04T00:21:47.151Z,989.05
2018-07-04T00:22:47.080Z,989.08
2018-07-04T00:23:47.008Z,989.09
2018-07-04T00:24:46.936Z,989.11
2018-07-04T00:25:46.926Z,989.09
2018-07-04T00:26:46.796Z,989.12
2018-07-04T00:27:46.724Z,989.11
2018-07-04T00:28:46.655Z,989.09
2018-07-04T00:29:46.585Z,989.07
2018-07-04T00:30:46.514Z,989.08
2018-07-04T00:31:46.441Z,989.03
2018-07-04T00:32:46.371Z,989.03
2018-07-04T00:33:46.300Z,989.00
2018-07-04T00:34:46.231Z,989.00
2018-07-04T00:35:46.158Z,988.98
2018-07-04T00:36:46.089Z,989.01
2018-07-04T00:37:46.019Z,989.01
2018-07-04T00:38:45.946Z,988.99
2018-07-04T00:39:45.876Z,989.02
2018-07-04T00:40:45.806Z,989.02
2018-07-04T00:41:45.736Z,989.02
2018-07-04T00:42:45.663Z,989.05
2018-07-04T00:43:45.593Z,989.07
2018-07-04T00:44:45.523Z,989.05
2018-07-04T00:45:45.453Z,989.04
2018-07-04T00:46:45.380Z,989.06
2018-07-04T00:47:45.310Z,989.08
2018-07-04T00:48:45.239Z,989.04
2018-07-04T00:49:45.169Z,989.08
2018-07-04T00:50:45.101Z,989.03
2018-07-04T00:51:45.035Z,989.01
2018-07-04T00:52:44.956Z,988.99
2018-07-04T00:53:44.885Z,989.01
2018-07-04T00:54:44.815Z,989.02
2018-07-04T00:55:45.094Z,989.03
2018-07-04T00:56:44.672Z,989.01
2018-07-04T00:57:44.604Z,989.02
2018-07-04T00:58:44.532Z,989.07
2018-07-04T00:59:44.459Z,989.03
2018-07-04T01:00:44.391Z,989.03
2018-07-04T01:01:44.318Z,989.03
2018-07-04T01:02:44.252Z,989.01
2018-07-04T01:03:44.179Z,989.02
2018-07-04T01:04:44.107Z,989.03
2018-07-04T01:05:44.036Z,989.02
2018-07-04T01:06:43.965Z,989.02
2018-07-04T01:07:43.894Z,989.01
2018-07-04T01:08:43.826Z,988.98
2018-07-04T01:09:43.753Z,989.01
2018-07-04T01:10:43.683Z,988.94
2018-07-04T01:11:43.610Z,988.94
2018-07-04T01:12:43.540Z,988.93
2018-07-04T01:13:43.471Z,988.91
2018-07-04T01:14:43.398Z,988.89
2018-07-04T01:15:43.328Z,988.89
2018-07-04T01:16:43.256Z,988.80
2018-07-04T01:17:43.186Z,988.83
2018-07-04T01:18:43.117Z,988.80
2018-07-04T01:19:43.044Z,988.79
2018-07-04T01:20:42.974Z,988.75
2018-07-04T01:21:42.950Z,988.78
2018-07-04T01:22:42.832Z,988.75
2018-07-04T01:23:42.761Z,988.75
2018-07-04T01:24:42.691Z,988.76
2018-07-04T01:25:42.620Z,988.75
2018-07-04T01:26:42.550Z,988.79
2018-07-04T01:27:42.479Z,988.78
2018-07-04T01:28:42.408Z,988.75
2018-07-04T01:29:42.343Z,988.78
2018-07-04T01:30:42.268Z,988.80
2018-07-04T01:31:42.196Z,988.81
2018-07-04T01:32:42.125Z,988.84
2018-07-04T01:33:42.057Z,988.85
2018-07-04T01:34:41.986Z,988.82
2018-07-04T01:35:41.915Z,988.85
2018-07-04T01:36:41.844Z,988.84
2018-07-04T01:37:41.775Z,988.85
2018-07-04T01:38:41.705Z,988.83
2018-07-04T01:39:41.633Z,988.82
2018-07-04T01:40:41.563Z,988.82
2018-07-04T01:41:41.493Z,988.82
2018-07-04T01:42:41.428Z,988.80
2018-07-04T01:43:41.352Z,988.81
2018-07-04T01:44:41.281Z,988.82
2018-07-04T01:45:41.212Z,988.82
2018-07-04T01:46:41.141Z,988.81
2018-07-04T01:47:41.069Z,988.78
2018-07-04T01:48:40.998Z,988.80
2018-07-04T01:49:40.929Z,988.81
2018-07-04T01:50:40.859Z,988.78
2018-07-04T01:51:40.791Z,988.79
2018-07-04T01:52:40.717Z,988.76
2018-07-04T01:53:40.647Z,988.75
2018-07-04T01:54:40.576Z,988.73
2018-07-04T01:55:40.505Z,988.77
2018-07-04T01:56:40.475Z,988.80
2018-07-04T01:57:40.363Z,988.78
2018-07-04T01:58:40.296Z,988.78
2018-07-04T01:59:40.222Z,988.76
2018-07-04T02:00:40.150Z,988.79
2018-07-04T02:01:40.081Z,988.75
2018-07-04T02:02:40.011Z,988.72
2018-07-04T02:03:39.939Z,988.73
2018-07-04T02:04:39.868Z,988.72
2018-07-04T02:05:39.801Z,988.71
2018-07-04T02:06:39.726Z,988.74
2018-07-04T02:07:39.654Z,988.71
2018-07-04T02:08:39.584Z,988.72
2018-07-04T02:09:39.512Z,988.72
2018-07-04T02:10:39.443Z,988.73
2018-07-04T02:11:39.370Z,988.73
2018-07-04T02:12:39.300Z,988.75
2018-07-04T02:13:39.229Z,988.73
2018-07-04T02:14:39.158Z,988.73
2018-07-04T02:15:39.086Z,988.70
2018-07-04T02:16:39.015Z,988.69
2018-07-04T02:17:38.944Z,988.68
2018-07-04T02:18:38.872Z,988.68
2018-07-04T02:19:38.801Z,988.66
2018-07-04T02:20:38.729Z,988.65
2018-07-04T02:21:38.661Z,988.64
2018-07-04T02:22:38.587Z,988.64
2018-07-04T02:23:38.514Z,988.63
2018-07-04T02:24:38.443Z,988.61
2018-07-04T02:25:38.373Z,988.60
2018-07-04T02:26:38.302Z,988.59
2018-07-04T02:27:38.230Z,988.60
2018-07-04T02:28:38.158Z,988.59
2018-07-04T02:29:38.088Z,988.59
2018-07-04T02:30:38.017Z,988.55
2018-07-04T02:31:37.944Z,988.53
2018-07-04T02:32:37.874Z,988.54
2018-07-04T02:33:37.800Z,988.57
2018-07-04T02:34:37.730Z,988.57
2018-07-04T02:35:37.656Z,988.58
2018-07-04T02:36:37.589Z,988.55
2018-07-04T02:37:37.516Z,988.57
2018-07-04T02:38:37.445Z,988.57
2018-07-04T02:39:37.370Z,988.55
2018-07-04T02:40:37.300Z,988.58
2018-07-04T02:41:37.230Z,988.54
2018-07-04T02:42:37.157Z,988.55
2018-07-04T02:43:37.090Z,988.58
2018-07-04T02:44:37.015Z,988.59
2018-07-04T02:45:36.943Z,988.58
2018-07-04T02:46:36.872Z,988.59
2018-07-04T02:47:36.799Z,988.57
2018-07-04T02:48:36.729Z,988.57
2018-07-04T02:49:36.657Z,988.57
2018-07-04T02:50:36.586Z,988.57
2018-07-04T02:51:36.515Z,988.58
2018-07-04T02:52:36.443Z,988.55
2018-07-04T02:53:36.372Z,988.58
2018-07-04T02:54:36.301Z,988.55
2018-07-04T02:55:36.228Z,988.59
2018-07-04T02:56:36.157Z,988.54
2018-07-04T02:57:36.089Z,988.55
2018-07-04T02:58:36.014Z,988.53
2018-07-04T02:59:35.942Z,988.51
2018-07-04T03:00:35.873Z,988.53
2018-07-04T03:01:35.800Z,988.50
2018-07-04T03:02:35.727Z,988.49
2018-07-04T03:03:35.657Z,988.49
2018-07-04T03:04:35.585Z,988.49
2018-07-04T03:05:35.516Z,988.49
2018-07-04T03:06:35.441Z,988.52
2018-07-04T03:07:35.369Z,988.50
2018-07-04T03:08:35.297Z,988.48
2018-07-04T03:09:35.227Z,988.49
2018-07-04T03:10:35.154Z,988.47
2018-07-04T03:11:35.083Z,988.47
2018-07-04T03:12:35.012Z,988.47
2018-07-04T03:13:34.939Z,988.43
2018-07-04T03:14:34.867Z,988.46
2018-07-04T03:15:34.796Z,988.45
2018-07-04T03:16:34.725Z,988.46
2018-07-04T03:17:34.652Z,988.41
2018-07-04T03:18:34.580Z,988.42
2018-07-04T03:19:34.513Z,988.42
2018-07-04T03:20:34.435Z,988.40
2018-07-04T03:21:34.363Z,988.39
2018-07-04T03:22:34.292Z,988.41
2018-07-04T03:23:34.220Z,988.40
2018-07-04T03:24:34.147Z,988.41
2018-07-04T03:25:34.076Z,988.42
2018-07-04T03:26:34.004Z,988.43
2018-07-04T03:27:33.932Z,988.43
2018-07-04T03:28:33.861Z,988.43
2018-07-04T03:29:33.789Z,988.42
2018-07-04T03:30:33.719Z,988.45
2018-07-04T03:31:33.645Z,988.45
2018-07-04T03:32:33.573Z,988.50
2018-07-04T03:33:33.501Z,988.44
2018-07-04T03:34:33.429Z,988.48
2018-07-04T03:35:33.356Z,988.49
2018-07-04T03:36:33.288Z,988.47
2018-07-04T03:37:33.211Z,988.49
2018-07-04T03:38:33.142Z,988.51
2018-07-04T03:39:33.070Z,988.52
2018-07-04T03:40:32.997Z,988.56
2018-07-04T03:41:32.924Z,988.59
2018-07-04T03:42:32.853Z,988.61
2018-07-04T03:43:32.780Z,988.60
2018-07-04T03:44:33.058Z,988.62
2018-07-04T03:45:32.637Z,988.63
2018-07-04T03:46:32.564Z,988.64
2018-07-04T03:47:32.492Z,988.61
2018-07-04T03:48:32.419Z,988.63
2018-07-04T03:49:32.348Z,988.62
2018-07-04T03:50:32.276Z,988.59
2018-07-04T03:51:32.204Z,988.64
2018-07-04T03:52:32.131Z,988.62
2018-07-04T03:53:32.062Z,988.64
2018-07-04T03:54:31.988Z,988.63
2018-07-04T03:55:31.915Z,988.61
2018-07-04T03:56:31.843Z,988.66
2018-07-04T03:57:31.770Z,988.61
2018-07-04T03:58:31.699Z,988.65
2018-07-04T03:59:31.630Z,988.68
2018-07-04T04:00:31.556Z,988.68
2018-07-04T04:01:31.484Z,988.67
2018-07-04T04:02:31.411Z,988.68
2018-07-04T04:03:31.337Z,988.69
2018-07-04T04:04:31.265Z,988.70
2018-07-04T04:05:31.194Z,988.74
2018-07-04T04:06:31.124Z,988.70
2018-07-04T04:07:31.051Z,988.72
2018-07-04T04:08:30.978Z,988.73
2018-07-04T04:09:30.906Z,988.73
2018-07-04T04:10:30.834Z,988.75
2018-07-04T04:11:30.761Z,988.75
2018-07-04T04:12:30.691Z,988.77
2018-07-04T04:13:30.618Z,988.79
2018-07-04T04:14:30.547Z,988.82
2018-07-04T04:15:30.472Z,988.83
2018-07-04T04:16:30.402Z,988.85
2018-07-04T04:17:30.329Z,988.81
2018-07-04T04:18:30.257Z,988.82
2018-07-04T04:19:30.186Z,988.80
2018-07-04T04:20:30.114Z,988.81
2018-07-04T04:21:30.043Z,988.76
2018-07-04T04:22:29.975Z,988.76
2018-07-04T04:23:29.899Z,988.75
2018-07-04T04:24:29.826Z,988.76
2018-07-04T04:25:29.755Z,988.74
2018-07-04T04:26:29.682Z,988.73
2018-07-04T04:27:29.610Z,988.74
2018-07-04T04:28:29.538Z,988.74
2018-07-04T04:29:29.467Z,988.76
2018-07-04T04:30:29.395Z,988.75
2018-07-04T04:31:29.323Z,988.75
2018-07-04T04:32:29.252Z,988.78
2018-07-04T04:33:29.180Z,988.82
2018-07-04T04:34:29.108Z,988.80
2018-07-04T04:35:29.036Z,988.79
2018-07-04T04:36:28.963Z,988.84
2018-07-04T04:37:28.893Z,988.83
2018-07-04T04:38:28.821Z,988.86
2018-07-04T04:39:28.749Z,988.90
2018-07-04T04:40:28.677Z,988.88
2018-07-04T04:41:28.606Z,988.87
2018-07-04T04:42:28.609Z,988.90
2018-07-04T04:43:28.460Z,988.91
2018-07-04T04:44:28.390Z,988.90
2018-07-04T04:45:28.317Z,988.92
2018-07-04T04:46:28.247Z,988.94
2018-07-04T04:47:28.175Z,988.93
2018-07-04T04:48:28.102Z,988.93
2018-07-04T04:49:28.030Z,988.94
2018-07-04T04:50:27.959Z,988.92
2018-07-04T04:51:27.888Z,988.92
2018-07-04T04:52:27.816Z,988.93
2018-07-04T04:53:27.745Z,988.91
2018-07-04T04:54:27.674Z,988.90
2018-07-04T04:55:27.601Z,988.87
2018-07-04T04:56:27.529Z,988.90
2018-07-04T04:57:27.457Z,988.91
2018-07-04T04:58:27.387Z,988.91
2018-07-04T04:59:27.314Z,988.90
2018-07-04T05:00:27.246Z,988.90
2018-07-04T05:01:27.171Z,988.87
2018-07-04T05:02:27.101Z,988.90
2018-07-04T05:03:27.029Z,988.92
2018-07-04T05:04:27.002Z,988.91
2018-07-04T05:05:26.887Z,988.87
2018-07-04T05:06:26.815Z,988.89
2018-07-04T05:07:26.745Z,988.87
2018-07-04T05:08:26.670Z,988.91
2018-07-04T05:09:26.601Z,988.88
2018-07-04T05:10:26.532Z,988.87
2018-07-04T05:11:26.458Z,988.87
2018-07-04T05:12:26.386Z,988.89
2018-07-04T05:13:26.315Z,988.89
2018-07-04T05:14:26.249Z,988.93
2018-07-04T05:15:26.172Z,988.92
2018-07-04T05:16:26.102Z,988.91
2018-07-04T05:17:26.030Z,988.90
2018-07-04T05:18:25.960Z,988.90
2018-07-04T05:19:25.887Z,988.96
2018-07-04T05:20:25.819Z,988.93
2018-07-04T05:21:25.746Z,988.93
2018-07-04T05:22:25.680Z,988.95
2018-07-04T05:23:25.607Z,988.95
2018-07-04T05:24:25.536Z,988.90
2018-07-04T05:25:25.463Z,988.94
2018-07-04T05:26:25.392Z,988.92
2018-07-04T05:27:25.323Z,988.91
2018-07-04T05:28:25.251Z,988.91
2018-07-04T05:29:25.210Z,988.90
2018-07-04T05:30:25.111Z,988.88
2018-07-04T05:31:25.039Z,988.88
2018-07-04T05:32:24.968Z,988.88
2018-07-04T05:33:24.898Z,988.88
2018-07-04T05:34:24.826Z,988.83
2018-07-04T05:35:24.756Z,988.82
2018-07-04T05:36:24.685Z,988.81
2018-07-04T05:37:24.619Z,988.82
2018-07-04T05:38:24.544Z,988.80
2018-07-04T05:39:24.474Z,988.85
2018-07-04T05:40:24.403Z,988.85
2018-07-04T05:41:24.333Z,988.88
2018-07-04T05:42:24.262Z,988.86
2018-07-04T05:43:24.191Z,988.86
2018-07-04T05:44:24.134Z,988.88
2018-07-04T05:45:24.052Z,988.85
2018-07-04T05:46:23.979Z,988.87
2018-07-04T05:47:23.933Z,988.83
2018-07-04T05:48:23.838Z,988.84
2018-07-04T05:49:23.769Z,988.85
2018-07-04T05:50:23.698Z,988.81
2018-07-04T05:51:23.629Z,988.82
2018-07-04T05:52:23.558Z,988.85
2018-07-04T05:53:23.487Z,988.84
2018-07-04T05:54:23.417Z,988.85
2018-07-04T05:55:23.345Z,988.85
2018-07-04T05:56:23.276Z,988.87
2018-07-04T05:57:23.207Z,988.87
2018-07-04T05:58:23.136Z,988.86
2018-07-04T05:59:23.065Z,988.85
2018-07-04T06:00:22.994Z,988.86
2018-07-04T06:01:22.925Z,988.90
2018-07-04T06:02:22.855Z,988.96
2018-07-04T06:03:22.784Z,988.92
2018-07-04T06:04:22.713Z,988.92
2018-07-04T06:05:22.645Z,988.93
2018-07-04T06:06:22.573Z,988.93
2018-07-04T06:07:22.502Z,988.91
2018-07-04T06:08:22.433Z,988.88
2018-07-04T06:09:22.367Z,988.90
2018-07-04T06:10:22.293Z,988.91
2018-07-04T06:11:22.223Z,988.90
2018-07-04T06:12:22.154Z,988.92
2018-07-04T06:13:22.084Z,988.92
2018-07-04T06:14:22.015Z,988.90
2018-07-04T06:15:21.942Z,988.94
2018-07-04T06:16:21.904Z,988.86
2018-07-04T06:17:21.803Z,988.89
2018-07-04T06:18:21.744Z,988.87
2018-07-04T06:19:21.663Z,988.87
2018-07-04T06:20:21.594Z,988.86
2018-07-04T06:21:21.573Z,988.88
2018-07-04T06:22:21.457Z,988.88
2018-07-04T06:23:21.385Z,988.86
2018-07-04T06:24:21.315Z,988.86
2018-07-04T06:25:21.245Z,988.93
2018-07-04T06:26:21.176Z,988.86
2018-07-04T06:27:21.105Z,988.92
2018-07-04T06:28:21.038Z,988.94
2018-07-04T06:29:20.967Z,988.93
2018-07-04T06:30:20.900Z,988.89
2018-07-04T06:31:20.826Z,988.89
2018-07-04T06:32:20.858Z,988.93
2018-07-04T06:33:20.690Z,988.90
2018-07-04T06:34:20.620Z,988.93
2018-07-04T06:35:20.550Z,988.90
2018-07-04T06:36:20.485Z,988.90
2018-07-04T06:37:20.412Z,988.92
2018-07-04T06:38:20.345Z,988.91
2018-07-04T06:39:20.274Z,988.95
2018-07-04T06:40:20.205Z,988.95
2018-07-04T06:41:20.136Z,988.98
2018-07-04T06:42:20.068Z,988.98
2018-07-04T06:43:19.997Z,988.95
2018-07-04T06:44:19.929Z,988.93
2018-07-04T06:45:19.860Z,988.93
2018-07-04T06:46:19.791Z,988.96
2018-07-04T06:47:19.722Z,988.98
2018-07-04T06:48:19.653Z,988.97
2018-07-04T06:49:19.585Z,988.98
2018-07-04T06:50:19.515Z,988.99
2018-07-04T06:51:19.447Z,988.97
2018-07-04T06:52:19.378Z,988.96
2018-07-04T06:53:19.310Z,989.01
2018-07-04T06:54:19.276Z,988.99
2018-07-04T06:55:19.173Z,989.01
2018-07-04T06:56:19.120Z,989.00
2018-07-04T06:57:19.036Z,988.99
2018-07-04T06:58:18.994Z,988.99
2018-07-04T06:59:18.898Z,988.98
2018-07-04T07:00:18.830Z,989.00
2018-07-04T07:01:18.763Z,988.98
2018-07-04T07:02:18.693Z,989.03
2018-07-04T07:03:18.625Z,988.99
2018-07-04T07:04:18.557Z,988.99
2018-07-04T07:05:18.490Z,988.98
2018-07-04T07:06:18.423Z,989.00
2018-07-04T07:07:18.352Z,989.00
2018-07-04T07:08:18.381Z,989.00
2018-07-04T07:09:18.216Z,989.00
2018-07-04T07:10:18.147Z,989.02
2018-07-04T07:11:18.079Z,989.02
2018-07-04T07:12:18.012Z,989.01
2018-07-04T07:13:17.943Z,989.00
2018-07-04T07:14:17.879Z,988.99
2018-07-04T07:15:17.808Z,988.96
2018-07-04T07:16:17.739Z,988.96
2018-07-04T07:17:17.671Z,988.96
2018-07-04T07:18:17.606Z,989.02
2018-07-04T07:19:17.535Z,988.96
2018-07-04T07:20:17.467Z,988.99
2018-07-04T07:21:17.472Z,988.99
2018-07-04T07:22:17.332Z,989.04
2018-07-04T07:23:17.265Z,988.99
2018-07-04T07:24:17.196Z,989.00
2018-07-04T07:25:17.129Z,989.03
2018-07-04T07:26:17.062Z,989.04
2018-07-04T07:27:16.994Z,989.01
2018-07-04T07:28:16.927Z,989.01
2018-07-04T07:29:16.859Z,988.99
2018-07-04T07:30:16.791Z,989.02
2018-07-04T07:31:16.724Z,989.02
2018-07-04T07:32:16.656Z,989.08
2018-07-04T07:33:16.590Z,989.08
2018-07-04T07:34:16.612Z,989.08
2018-07-04T07:35:16.454Z,989.06
2018-07-04T07:36:16.387Z,989.08
2018-07-04T07:37:16.320Z,989.03
2018-07-04T07:38:16.254Z,989.07
2018-07-04T07:39:16.185Z,989.03
2018-07-04T07:40:16.119Z,989.05
2018-07-04T07:41:16.053Z,989.06
2018-07-04T07:42:15.985Z,989.10
2018-07-04T07:43:15.918Z,989.08
2018-07-04T07:44:15.851Z,989.10
2018-07-04T07:45:15.785Z,989.08
2018-07-04T07:46:15.718Z,989.09
2018-07-04T07:47:15.651Z,989.11
2018-07-04T07:48:15.586Z,989.08
2018-07-04T07:49:15.517Z,989.10
2018-07-04T07:50:15.452Z,989.05
2018-07-04T07:51:15.387Z,989.06
2018-07-04T07:52:15.318Z,989.04
2018-07-04T07:53:15.255Z,989.05
2018-07-04T07:54:15.262Z,989.04
2018-07-04T07:55:15.119Z,988.99
2018-07-04T07:56:15.053Z,988.98
2018-07-04T07:57:14.987Z,988.98
2018-07-04T07:58:14.921Z,988.99
2018-07-04T07:59:14.854Z,988.99
2018-07-04T08:00:14.788Z,988.99
2018-07-04T08:01:14.723Z,988.97
2018-07-04T08:02:14.657Z,988.98
2018-07-04T08:03:14.590Z,988.99
2018-07-04T08:04:14.528Z,988.99
2018-07-04T08:05:14.457Z,988.98
2018-07-04T08:06:14.393Z,989.00
2018-07-04T08:07:14.326Z,989.00
2018-07-04T08:08:14.260Z,988.98
2018-07-04T08:09:14.194Z,988.99
2018-07-04T08:10:14.128Z,988.97
2018-07-04T08:11:14.061Z,988.97
2018-07-04T08:12:13.994Z,988.95
2018-07-04T08:13:13.933Z,988.97
2018-07-04T08:14:13.864Z,988.96
2018-07-04T08:15:13.797Z,988.97
2018-07-04T08:16:13.732Z,988.95
2018-07-04T08:17:13.666Z,988.98
2018-07-04T08:18:13.601Z,988.97
2018-07-04T08:19:13.534Z,988.99
2018-07-04T08:20:13.470Z,988.96
2018-07-04T08:21:13.403Z,988.98
2018-07-04T08:22:13.336Z,989.02
2018-07-04T08:23:13.271Z,989.02
2018-07-04T08:24:13.211Z,988.99
2018-07-04T08:25:13.143Z,988.99
2018-07-04T08:26:13.133Z,989.03
2018-07-04T08:27:13.011Z,989.03
2018-07-04T08:28:12.945Z,989.06
2018-07-04T08:29:12.880Z,989.03
2018-07-04T08:30:12.814Z,989.03
2018-07-04T08:31:12.747Z,989.02
2018-07-04T08:32:12.684Z,989.05
2018-07-04T08:33:12.617Z,989.05
2018-07-04T08:34:12.554Z,989.05
2018-07-04T08:35:12.486Z,989.07
2018-07-04T08:36:12.423Z,989.06
2018-07-04T08:37:12.358Z,989.09
2018-07-04T08:38:12.293Z,989.09
2018-07-04T08:39:12.234Z,989.05
2018-07-04T08:40:12.165Z,989.09
2018-07-04T08:41:12.098Z,989.10
2018-07-04T08:42:12.033Z,989.05
2018-07-04T08:43:11.968Z,989.07
2018-07-04T08:44:11.906Z,989.07
2018-07-04T08:45:11.839Z,989.04
2018-07-04T08:46:11.775Z,989.03
2018-07-04T08:47:11.709Z,989.07
2018-07-04T08:48:11.645Z,989.04
2018-07-04T08:49:11.581Z,989.06
2018-07-04T08:50:11.516Z,989.07
2018-07-04T08:51:11.487Z,989.05
2018-07-04T08:52:11.387Z,989.05
2018-07-04T08:53:11.322Z,989.06
2018-07-04T08:54:11.257Z,989.07
2018-07-04T08:55:11.192Z,989.07
2018-07-04T08:56:11.130Z,989.07
2018-07-04T08:57:11.063Z,989.09
2018-07-04T08:58:11.044Z,989.07
2018-07-04T08:59:10.934Z,989.09
2018-07-04T09:00:10.871Z,989.07
2018-07-04T09:01:10.807Z,989.08
2018-07-04T09:02:10.742Z,989.11
2018-07-04T09:03:10.677Z,989.10
2018-07-04T09:04:10.614Z,989.09
2018-07-04T09:05:10.550Z,989.07
2018-07-04T09:06:10.487Z,989.10
2018-07-04T09:07:10.421Z,989.11
2018-07-04T09:08:10.358Z,989.11
2018-07-04T09:09:10.293Z,989.12
2018-07-04T09:10:10.236Z,989.14
2018-07-04T09:11:10.166Z,989.17
2018-07-04T09:12:10.102Z,989.16
2018-07-04T09:13:10.039Z,989.17
2018-07-04T09:14:09.978Z,989.20
2018-07-04T09:15:09.909Z,989.15
2018-07-04T09:16:09.849Z,989.20
2018-07-04T09:17:09.803Z,989.20
2018-07-04T09:18:09.719Z,989.23
2018-07-04T09:19:09.655Z,989.24
2018-07-04T09:20:09.592Z,989.20
2018-07-04T09:21:09.528Z,989.26
2018-07-04T09:22:09.465Z,989.22
2018-07-04T09:23:09.398Z,989.24
2018-07-04T09:24:09.337Z,989.24
2018-07-04T09:25:09.274Z,989.28
2018-07-04T09:26:09.210Z,989.30
2018-07-04T09:27:09.145Z,989.28
2018-07-04T09:28:09.083Z,989.28
2018-07-04T09:29:09.019Z,989.28
2018-07-04T09:30:08.958Z,989.28
2018-07-04T09:31:08.891Z,989.27
2018-07-04T09:32:08.828Z,989.31
2018-07-04T09:33:08.764Z,989.28
2018-07-04T09:34:08.702Z,989.31
2018-07-04T09:35:08.638Z,989.30
2018-07-04T09:36:08.575Z,989.27
2018-07-04T09:37:08.512Z,989.32
2018-07-04T09:38:08.448Z,989.32
2018-07-04T09:39:08.384Z,989.30
2018-07-04T09:40:08.322Z,989.29
2018-07-04T09:41:08.261Z,989.28
2018-07-04T09:42:08.195Z,989.30
2018-07-04T09:43:08.132Z,989.28
2018-07-04T09:44:08.067Z,989.31
2018-07-04T09:45:08.005Z,989.31
2018-07-04T09:46:07.942Z,989.32
2018-07-04T09:47:07.878Z,989.33
2018-07-04T09:48:07.814Z,989.35
2018-07-04T09:49:07.753Z,989.37
2018-07-04T09:50:07.689Z,989.34
2018-07-04T09:51:07.627Z,989.32
2018-07-04T09:52:07.563Z,989.30
2018-07-04T09:53:07.499Z,989.29
2018-07-04T09:54:07.437Z,989.35
2018-07-04T09:55:07.373Z,989.34
2018-07-04T09:56:07.311Z,989.33
2018-07-04T09:57:07.247Z,989.35
2018-07-04T09:58:07.184Z,989.34
2018-07-04T09:59:07.121Z,989.35
2018-07-04T10:00:07.059Z,989.37
2018-07-04T10:01:06.998Z,989.36
2018-07-04T10:02:06.933Z,989.37
2018-07-04T10:03:06.870Z,989.36
2018-07-04T10:04:06.806Z,989.38
2018-07-04T10:05:06.794Z,989.36
2018-07-04T10:06:06.681Z,989.33
2018-07-04T10:07:06.618Z,989.39
2018-07-04T10:08:06.555Z,989.39
2018-07-04T10:09:06.492Z,989.35
2018-07-04T10:10:06.430Z,989.34
2018-07-04T10:11:06.369Z,989.37
2018-07-04T10:12:06.303Z,989.37
2018-07-04T10:13:06.240Z,989.40
2018-07-04T10:14:06.178Z,989.44
2018-07-04T10:15:06.117Z,989.42
2018-07-04T10:16:06.049Z,989.42
2018-07-04T10:17:05.987Z,989.42
2018-07-04T10:18:05.923Z,989.38
2018-07-04T10:19:05.859Z,989.40
2018-07-04T10:20:05.796Z,989.41
2018-07-04T10:21:05.732Z,989.37
2018-07-04T10:22:05.670Z,989.38
2018-07-04T10:23:05.605Z,989.38
2018-07-04T10:24:05.540Z,989.39
2018-07-04T10:25:05.477Z,989.42
2018-07-04T10:26:05.414Z,989.38
2018-07-04T10:27:05.349Z,989.42
2018-07-04T10:28:05.284Z,989.45
2018-07-04T10:29:05.222Z,989.51
2018-07-04T10:30:05.159Z,989.48
2018-07-04T10:31:05.094Z,989.47
2018-07-04T10:32:05.031Z,989.49
2018-07-04T10:33:04.969Z,989.49
2018-07-04T10:34:04.901Z,989.47
2018-07-04T10:35:04.837Z,989.48
2018-07-04T10:36:04.773Z,989.47
2018-07-04T10:37:04.711Z,989.42
2018-07-04T10:38:04.646Z,989.41
2018-07-04T10:39:04.583Z,989.47
2018-07-04T10:40:04.518Z,989.46
2018-07-04T10:41:04.455Z,989.45
2018-07-04T10:42:04.403Z,989.44
2018-07-04T10:43:04.327Z,989.40
2018-07-04T10:44:04.267Z,989.34
2018-07-04T10:45:04.202Z,989.36
2018-07-04T10:46:04.136Z,989.33
2018-07-04T10:47:04.073Z,989.33
2018-07-04T10:48:04.008Z,989.29
2018-07-04T10:49:03.946Z,989.28
2018-07-04T10:50:03.880Z,989.29
2018-07-04T10:51:03.838Z,989.27
2018-07-04T10:52:03.751Z,989.27
2018-07-04T10:53:03.688Z,989.26
2018-07-04T10:54:03.625Z,989.22
2018-07-04T10:55:03.560Z,989.21
2018-07-04T10:56:03.497Z,989.16
2018-07-04T10:57:03.432Z,989.21
2018-07-04T10:58:03.368Z,989.14
2018-07-04T10:59:03.305Z,989.15
2018-07-04T11:00:03.240Z,989.14
2018-07-04T11:01:03.176Z,989.14
2018-07-04T11:02:03.113Z,989.09
2018-07-04T11:03:03.047Z,989.11
2018-07-04T11:04:02.984Z,989.08
2018-07-04T11:05:02.920Z,989.08
2018-07-04T11:06:02.856Z,989.04
2018-07-04T11:07:02.792Z,989.04
2018-07-04T11:08:02.728Z,989.05
2018-07-04T11:09:02.664Z,989.00
2018-07-04T11:10:02.609Z,989.02
2018-07-04T11:11:02.538Z,989.00
2018-07-04T11:12:02.472Z,989.00
2018-07-04T11:13:02.408Z,989.00
2018-07-04T11:14:02.345Z,989.03
2018-07-04T11:15:02.280Z,988.99
2018-07-04T11:16:02.216Z,988.97
2018-07-04T11:17:02.239Z,988.97
2018-07-04T11:18:02.089Z,989.00
2018-07-04T11:19:02.025Z,988.98
2018-07-04T11:20:01.962Z,988.93
2018-07-04T11:21:01.899Z,988.92
2018-07-04T11:22:01.837Z,988.90
2018-07-04T11:23:01.773Z,988.91
2018-07-04T11:24:01.710Z,988.93
2018-07-04T11:25:01.650Z,988.87
2018-07-04T11:26:01.586Z,988.86
2018-07-04T11:27:01.524Z,988.90
2018-07-04T11:28:01.462Z,988.92
2018-07-04T11:29:01.402Z,988.97
2018-07-04T11:30:01.344Z,988.96
2018-07-04T11:31:01.280Z,988.94
2018-07-04T11:32:01.221Z,989.03
2018-07-04T11:33:01.160Z,989.04
2018-07-04T11:34:01.101Z,988.94
2018-07-04T11:35:01.040Z,988.97
2018-07-04T11:36:00.982Z,989.00
2018-07-04T11:37:00.923Z,988.98
2018-07-04T11:38:00.864Z,988.94
2018-07-04T11:39:00.806Z,988.92
2018-07-04T11:40:00.749Z,988.93
2018-07-04T11:41:00.691Z,988.89
2018-07-04T11:42:00.634Z,988.92
2018-07-04T11:43:00.576Z,988.78
2018-07-04T11:44:00.520Z,988.80
2018-07-04T11:45:00.464Z,988.88
2018-07-04T11:46:00.409Z,988.88
2018-07-04T11:47:00.350Z,988.91
2018-07-04T11:48:00.293Z,988.93
2018-07-04T11:49:00.237Z,988.95
2018-07-04T11:50:00.182Z,988.92
2018-07-04T11:51:00.125Z,988.89
2018-07-04T11:52:00.071Z,988.87
2018-07-04T11:53:00.040Z,989.05
2018-07-04T11:53:59.961Z,989.59
2018-07-04T11:54:59.900Z,989.54
2018-07-04T11:55:59.848Z,989.41
2018-07-04T11:56:59.812Z,989.28
2018-07-04T11:57:59.739Z,989.30
2018-07-04T11:58:59.681Z,989.39
2018-07-04T11:59:59.626Z,989.30
2018-07-04T12:00:59.573Z,989.34
2018-07-04T12:01:59.518Z,989.46
2018-07-04T12:02:59.464Z,989.47
2018-07-04T12:03:59.409Z,989.48
2018-07-04T12:04:59.361Z,989.45
2018-07-04T12:05:59.303Z,989.49
2018-07-04T12:06:59.249Z,989.49
2018-07-04T12:07:59.196Z,989.51
2018-07-04T12:08:59.142Z,989.43
2018-07-04T12:09:59.089Z,989.27
2018-07-04T12:10:59.093Z,989.25
2018-07-04T12:11:58.982Z,989.34
2018-07-04T12:12:58.930Z,989.10
2018-07-04T12:13:58.877Z,989.01
2018-07-04T12:14:58.824Z,989.41
2018-07-04T12:15:58.770Z,989.36
2018-07-04T12:16:58.719Z,989.36
2018-07-04T12:17:58.666Z,989.39
2018-07-04T12:18:58.613Z,989.30
2018-07-04T12:19:58.560Z,989.31
2018-07-04T12:20:58.548Z,989.32
2018-07-04T12:21:58.456Z,989.31
2018-07-04T12:22:58.402Z,989.19
2018-07-04T12:23:58.350Z,989.17
2018-07-04T12:24:58.300Z,989.14
2018-07-04T12:25:58.246Z,989.11
2018-07-04T12:26:58.200Z,989.05
2018-07-04T12:27:58.142Z,988.62